sensor_id;sensor_type;location;lat;lon;timestamp;P1;durP1;ratioP1;P2;durP2;ratioP2
6422;SDS011;3244;42.708;23.288;2023-05-10T00:00:24;4.13;;;3.67;;
6422;SDS011;3244;42.708;23.288;2023-05-10T00:02:51;4.00;;;3.70;;
6422;SDS011;3244;42.708;23.288;2023-05-10T00:05:18;3.92;;;3.63;;
6422;SDS011;3244;42.708;23.288;2023-05-10T00:07:45;4.13;;;3.83;;
6422;SDS011;3244;42.708;23.288;2023-05-10T00:10:11;4.82;;;4.47;;
6422;SDS011;3244;42.708;23.288;2023-05-10T00:12:39;6.57;;;5.32;;
6422;SDS011;3244;42.708;23.288;2023-05-10T00:15:07;5.15;;;4.75;;
6422;SDS011;3244;42.708;23.288;2023-05-10T00:17:34;6.28;;;5.78;;
6422;SDS011;3244;42.708;23.288;2023-05-10T00:20:01;6.68;;;6.18;;
6422;SDS011;3244;42.708;23.288;2023-05-10T00:22:29;8.23;;;7.63;;
6422;SDS011;3244;42.708;23.288;2023-05-10T00:24:56;8.18;;;7.40;;
6422;SDS011;3244;42.708;23.288;2023-05-10T00:27:23;8.07;;;7.45;;
6422;SDS011;3244;42.708;23.288;2023-05-10T00:29:51;6.95;;;6.53;;
6422;SDS011;3244;42.708;23.288;2023-05-10T00:32:18;7.88;;;7.15;;
6422;SDS011;3244;42.708;23.288;2023-05-10T00:34:44;8.63;;;7.75;;
6422;SDS011;3244;42.708;23.288;2023-05-10T00:37:11;7.53;;;6.93;;
6422;SDS011;3244;42.708;23.288;2023-05-10T00:39:37;8.13;;;7.60;;
6422;SDS011;3244;42.708;23.288;2023-05-10T00:42:04;8.05;;;7.45;;
6422;SDS011;3244;42.708;23.288;2023-05-10T00:44:31;8.77;;;7.97;;
6422;SDS011;3244;42.708;23.288;2023-05-10T00:46:59;8.63;;;7.93;;
6422;SDS011;3244;42.708;23.288;2023-05-10T00:49:26;8.90;;;8.23;;
6422;SDS011;3244;42.708;23.288;2023-05-10T00:51:52;8.57;;;7.88;;
6422;SDS011;3244;42.708;23.288;2023-05-10T00:54:19;8.48;;;7.88;;
6422;SDS011;3244;42.708;23.288;2023-05-10T00:56:46;9.43;;;8.65;;
6422;SDS011;3244;42.708;23.288;2023-05-10T00:59:14;8.52;;;7.93;;
6422;SDS011;3244;42.708;23.288;2023-05-10T01:01:41;8.75;;;7.70;;
6422;SDS011;3244;42.708;23.288;2023-05-10T01:04:10;10.15;;;9.30;;
6422;SDS011;3244;42.708;23.288;2023-05-10T01:06:37;11.07;;;9.00;;
6422;SDS011;3244;42.708;23.288;2023-05-10T01:09:04;8.65;;;8.05;;
6422;SDS011;3244;42.708;23.288;2023-05-10T01:11:31;9.30;;;8.52;;
6422;SDS011;3244;42.708;23.288;2023-05-10T01:13:58;8.52;;;7.78;;
6422;SDS011;3244;42.708;23.288;2023-05-10T01:16:25;7.60;;;7.15;;
6422;SDS011;3244;42.708;23.288;2023-05-10T01:18:53;9.20;;;8.60;;
6422;SDS011;3244;42.708;23.288;2023-05-10T01:21:23;9.27;;;8.40;;
6422;SDS011;3244;42.708;23.288;2023-05-10T01:24:08;8.70;;;8.00;;
6422;SDS011;3244;42.708;23.288;2023-05-10T01:30:01;8.18;;;7.57;;
6422;SDS011;3244;42.708;23.288;2023-05-10T01:32:37;8.38;;;7.68;;
6422;SDS011;3244;42.708;23.288;2023-05-10T01:35:10;7.40;;;6.90;;
6422;SDS011;3244;42.708;23.288;2023-05-10T01:37:46;7.90;;;7.20;;
6422;SDS011;3244;42.708;23.288;2023-05-10T01:40:17;7.40;;;6.90;;
6422;SDS011;3244;42.708;23.288;2023-05-10T01:42:50;6.93;;;6.30;;
6422;SDS011;3244;42.708;23.288;2023-05-10T01:45:23;6.30;;;5.90;;
6422;SDS011;3244;42.708;23.288;2023-05-10T01:47:58;6.75;;;6.35;;
6422;SDS011;3244;42.708;23.288;2023-05-10T01:50:30;7.80;;;7.20;;
6422;SDS011;3244;42.708;23.288;2023-05-10T01:52:59;6.68;;;6.28;;
6422;SDS011;3244;42.708;23.288;2023-05-10T01:55:28;6.43;;;5.85;;
6422;SDS011;3244;42.708;23.288;2023-05-10T01:58:00;5.93;;;5.40;;
6422;SDS011;3244;42.708;23.288;2023-05-10T02:00:30;6.22;;;5.75;;
6422;SDS011;3244;42.708;23.288;2023-05-10T02:03:01;6.90;;;6.40;;
6422;SDS011;3244;42.708;23.288;2023-05-10T02:05:32;7.00;;;6.60;;
6422;SDS011;3244;42.708;23.288;2023-05-10T02:08:00;6.72;;;6.22;;
6422;SDS011;3244;42.708;23.288;2023-05-10T02:10:29;5.55;;;5.25;;
6422;SDS011;3244;42.708;23.288;2023-05-10T02:12:58;6.30;;;5.70;;
6422;SDS011;3244;42.708;23.288;2023-05-10T02:15:26;6.65;;;6.25;;
6422;SDS011;3244;42.708;23.288;2023-05-10T02:17:54;5.75;;;5.03;;
6422;SDS011;3244;42.708;23.288;2023-05-10T02:20:24;5.97;;;5.57;;
6422;SDS011;3244;42.708;23.288;2023-05-10T02:22:53;4.70;;;4.40;;
6422;SDS011;3244;42.708;23.288;2023-05-10T02:25:21;5.03;;;4.75;;
6422;SDS011;3244;42.708;23.288;2023-05-10T02:27:49;4.75;;;4.35;;
6422;SDS011;3244;42.708;23.288;2023-05-10T02:30:17;4.20;;;4.00;;
6422;SDS011;3244;42.708;23.288;2023-05-10T02:32:45;3.15;;;3.05;;
6422;SDS011;3244;42.708;23.288;2023-05-10T02:35:14;7.32;;;3.78;;
6422;SDS011;3244;42.708;23.288;2023-05-10T02:37:43;5.10;;;3.92;;
6422;SDS011;3244;42.708;23.288;2023-05-10T02:40:10;6.60;;;4.68;;
6422;SDS011;3244;42.708;23.288;2023-05-10T02:42:39;4.97;;;4.68;;
6422;SDS011;3244;42.708;23.288;2023-05-10T02:45:10;5.45;;;4.97;;
6422;SDS011;3244;42.708;23.288;2023-05-10T02:47:39;4.47;;;4.07;;
6422;SDS011;3244;42.708;23.288;2023-05-10T02:50:06;4.68;;;4.00;;
6422;SDS011;3244;42.708;23.288;2023-05-10T02:52:37;4.32;;;4.03;;
6422;SDS011;3244;42.708;23.288;2023-05-10T02:55:08;4.72;;;4.32;;
6422;SDS011;3244;42.708;23.288;2023-05-10T02:57:38;5.18;;;4.47;;
6422;SDS011;3244;42.708;23.288;2023-05-10T03:00:09;5.32;;;3.80;;
6422;SDS011;3244;42.708;23.288;2023-05-10T03:02:36;4.45;;;4.15;;
6422;SDS011;3244;42.708;23.288;2023-05-10T03:05:03;6.95;;;4.25;;
6422;SDS011;3244;42.708;23.288;2023-05-10T03:07:30;4.20;;;3.75;;
6422;SDS011;3244;42.708;23.288;2023-05-10T03:09:57;3.95;;;3.65;;
6422;SDS011;3244;42.708;23.288;2023-05-10T03:12:27;3.85;;;3.65;;
6422;SDS011;3244;42.708;23.288;2023-05-10T03:15:07;4.82;;;4.22;;
6422;SDS011;3244;42.708;23.288;2023-05-10T03:17:40;4.30;;;3.90;;
6422;SDS011;3244;42.708;23.288;2023-05-10T03:20:16;4.13;;;3.78;;
6422;SDS011;3244;42.708;23.288;2023-05-10T03:22:49;3.70;;;3.50;;
6422;SDS011;3244;42.708;23.288;2023-05-10T03:25:19;4.05;;;3.75;;
6422;SDS011;3244;42.708;23.288;2023-05-10T03:27:49;6.07;;;4.25;;
6422;SDS011;3244;42.708;23.288;2023-05-10T03:30:16;5.30;;;4.80;;
6422;SDS011;3244;42.708;23.288;2023-05-10T03:32:44;5.55;;;5.05;;
6422;SDS011;3244;42.708;23.288;2023-05-10T03:35:11;4.35;;;3.85;;
6422;SDS011;3244;42.708;23.288;2023-05-10T03:37:39;7.65;;;4.47;;
6422;SDS011;3244;42.708;23.288;2023-05-10T03:40:06;5.28;;;4.88;;
6422;SDS011;3244;42.708;23.288;2023-05-10T03:42:33;4.30;;;4.00;;
6422;SDS011;3244;42.708;23.288;2023-05-10T03:45:02;4.97;;;4.47;;
6422;SDS011;3244;42.708;23.288;2023-05-10T03:47:29;5.90;;;5.35;;
6422;SDS011;3244;42.708;23.288;2023-05-10T03:49:55;7.55;;;4.10;;
6422;SDS011;3244;42.708;23.288;2023-05-10T03:52:22;4.60;;;4.22;;
6422;SDS011;3244;42.708;23.288;2023-05-10T03:54:49;4.35;;;4.05;;
6422;SDS011;3244;42.708;23.288;2023-05-10T03:57:15;4.50;;;4.20;;
6422;SDS011;3244;42.708;23.288;2023-05-10T03:59:42;4.75;;;4.35;;
6422;SDS011;3244;42.708;23.288;2023-05-10T04:02:10;5.50;;;4.95;;
6422;SDS011;3244;42.708;23.288;2023-05-10T04:04:37;5.68;;;5.28;;
6422;SDS011;3244;42.708;23.288;2023-05-10T04:07:03;6.13;;;5.57;;
6422;SDS011;3244;42.708;23.288;2023-05-10T04:09:30;4.80;;;4.50;;
6422;SDS011;3244;42.708;23.288;2023-05-10T04:11:58;6.03;;;4.88;;
6422;SDS011;3244;42.708;23.288;2023-05-10T04:14:25;6.82;;;5.45;;
6422;SDS011;3244;42.708;23.288;2023-05-10T04:16:51;5.60;;;5.20;;
6422;SDS011;3244;42.708;23.288;2023-05-10T04:19:19;7.63;;;5.13;;
6422;SDS011;3244;42.708;23.288;2023-05-10T04:21:46;7.28;;;5.72;;
6422;SDS011;3244;42.708;23.288;2023-05-10T04:24:13;5.38;;;4.85;;
6422;SDS011;3244;42.708;23.288;2023-05-10T04:26:39;6.80;;;4.97;;
6422;SDS011;3244;42.708;23.288;2023-05-10T04:29:06;4.85;;;4.45;;
6422;SDS011;3244;42.708;23.288;2023-05-10T04:31:33;5.40;;;4.90;;
6422;SDS011;3244;42.708;23.288;2023-05-10T04:34:01;5.32;;;4.68;;
6422;SDS011;3244;42.708;23.288;2023-05-10T04:36:29;5.70;;;4.53;;
6422;SDS011;3244;42.708;23.288;2023-05-10T04:38:57;5.28;;;4.75;;
6422;SDS011;3244;42.708;23.288;2023-05-10T04:41:24;4.43;;;4.13;;
6422;SDS011;3244;42.708;23.288;2023-05-10T04:43:50;5.10;;;4.65;;
6422;SDS011;3244;42.708;23.288;2023-05-10T04:46:17;5.30;;;4.88;;
6422;SDS011;3244;42.708;23.288;2023-05-10T04:48:44;4.28;;;3.60;;
6422;SDS011;3244;42.708;23.288;2023-05-10T04:51:10;5.72;;;5.03;;
6422;SDS011;3244;42.708;23.288;2023-05-10T04:53:39;4.90;;;4.45;;
6422;SDS011;3244;42.708;23.288;2023-05-10T04:56:05;5.38;;;4.93;;
6422;SDS011;3244;42.708;23.288;2023-05-10T04:58:33;5.05;;;4.45;;
6422;SDS011;3244;42.708;23.288;2023-05-10T05:01:04;5.75;;;5.25;;
6422;SDS011;3244;42.708;23.288;2023-05-10T05:03:31;4.70;;;4.40;;
6422;SDS011;3244;42.708;23.288;2023-05-10T05:05:58;5.75;;;5.22;;
6422;SDS011;3244;42.708;23.288;2023-05-10T05:08:25;5.60;;;5.20;;
6422;SDS011;3244;42.708;23.288;2023-05-10T05:10:53;6.10;;;5.50;;
6422;SDS011;3244;42.708;23.288;2023-05-10T05:13:20;8.68;;;5.05;;
6422;SDS011;3244;42.708;23.288;2023-05-10T05:15:47;7.05;;;6.50;;
6422;SDS011;3244;42.708;23.288;2023-05-10T05:18:14;7.60;;;5.82;;
6422;SDS011;3244;42.708;23.288;2023-05-10T05:20:41;9.40;;;5.97;;
6422;SDS011;3244;42.708;23.288;2023-05-10T05:23:07;6.22;;;5.70;;
6422;SDS011;3244;42.708;23.288;2023-05-10T05:25:34;7.30;;;6.55;;
6422;SDS011;3244;42.708;23.288;2023-05-10T05:28:02;12.60;;;6.65;;
6422;SDS011;3244;42.708;23.288;2023-05-10T05:30:29;6.65;;;6.05;;
6422;SDS011;3244;42.708;23.288;2023-05-10T05:32:56;6.70;;;5.85;;
6422;SDS011;3244;42.708;23.288;2023-05-10T05:35:23;6.38;;;5.75;;
6422;SDS011;3244;42.708;23.288;2023-05-10T05:37:50;8.70;;;6.32;;
6422;SDS011;3244;42.708;23.288;2023-05-10T05:40:16;5.97;;;5.47;;
6422;SDS011;3244;42.708;23.288;2023-05-10T05:42:43;7.55;;;6.80;;
6422;SDS011;3244;42.708;23.288;2023-05-10T05:45:11;8.15;;;7.45;;
6422;SDS011;3244;42.708;23.288;2023-05-10T05:47:39;7.07;;;6.43;;
6422;SDS011;3244;42.708;23.288;2023-05-10T05:50:06;9.95;;;7.68;;
6422;SDS011;3244;42.708;23.288;2023-05-10T05:52:33;7.10;;;6.50;;
6422;SDS011;3244;42.708;23.288;2023-05-10T05:55:01;6.22;;;5.80;;
6422;SDS011;3244;42.708;23.288;2023-05-10T05:57:27;10.35;;;6.70;;
6422;SDS011;3244;42.708;23.288;2023-05-10T05:59:54;6.97;;;6.38;;
6422;SDS011;3244;42.708;23.288;2023-05-10T06:02:22;9.05;;;6.75;;
6422;SDS011;3244;42.708;23.288;2023-05-10T06:04:49;8.40;;;6.88;;
6422;SDS011;3244;42.708;23.288;2023-05-10T06:07:16;13.63;;;7.25;;
6422;SDS011;3244;42.708;23.288;2023-05-10T06:09:43;5.45;;;4.85;;
6422;SDS011;3244;42.708;23.288;2023-05-10T06:12:09;6.80;;;6.18;;
6422;SDS011;3244;42.708;23.288;2023-05-10T06:14:36;6.90;;;6.28;;
6422;SDS011;3244;42.708;23.288;2023-05-10T06:17:03;8.25;;;7.55;;
6422;SDS011;3244;42.708;23.288;2023-05-10T06:19:31;8.63;;;7.72;;
6422;SDS011;3244;42.708;23.288;2023-05-10T06:21:58;7.32;;;6.75;;
6422;SDS011;3244;42.708;23.288;2023-05-10T06:24:24;7.70;;;7.00;;
6422;SDS011;3244;42.708;23.288;2023-05-10T06:26:52;7.13;;;6.53;;
6422;SDS011;3244;42.708;23.288;2023-05-10T06:29:18;7.93;;;7.15;;
6422;SDS011;3244;42.708;23.288;2023-05-10T06:31:45;6.18;;;5.68;;
6422;SDS011;3244;42.708;23.288;2023-05-10T06:34:12;8.35;;;6.55;;
6422;SDS011;3244;42.708;23.288;2023-05-10T06:36:40;10.82;;;6.70;;
6422;SDS011;3244;42.708;23.288;2023-05-10T06:39:07;5.78;;;5.22;;
6422;SDS011;3244;42.708;23.288;2023-05-10T06:41:34;6.63;;;6.05;;
6422;SDS011;3244;42.708;23.288;2023-05-10T06:44:00;9.10;;;6.18;;
6422;SDS011;3244;42.708;23.288;2023-05-10T06:46:28;7.00;;;6.25;;
6422;SDS011;3244;42.708;23.288;2023-05-10T06:48:54;7.15;;;6.07;;
6422;SDS011;3244;42.708;23.288;2023-05-10T06:51:21;7.00;;;6.38;;
6422;SDS011;3244;42.708;23.288;2023-05-10T06:53:49;8.35;;;5.82;;
6422;SDS011;3244;42.708;23.288;2023-05-10T06:56:16;6.78;;;6.35;;
6422;SDS011;3244;42.708;23.288;2023-05-10T06:58:43;10.32;;;6.07;;
6422;SDS011;3244;42.708;23.288;2023-05-10T07:01:09;9.13;;;5.80;;
6422;SDS011;3244;42.708;23.288;2023-05-10T07:03:36;6.20;;;5.13;;
6422;SDS011;3244;42.708;23.288;2023-05-10T07:06:03;5.18;;;4.78;;
6422;SDS011;3244;42.708;23.288;2023-05-10T07:08:32;6.18;;;5.72;;
6422;SDS011;3244;42.708;23.288;2023-05-10T07:11:00;5.63;;;5.15;;
6422;SDS011;3244;42.708;23.288;2023-05-10T07:13:28;6.57;;;5.32;;
6422;SDS011;3244;42.708;23.288;2023-05-10T07:15:56;6.53;;;5.70;;
6422;SDS011;3244;42.708;23.288;2023-05-10T07:18:23;7.97;;;5.82;;
6422;SDS011;3244;42.708;23.288;2023-05-10T07:20:50;6.32;;;5.75;;
6422;SDS011;3244;42.708;23.288;2023-05-10T07:23:16;6.22;;;5.65;;
6422;SDS011;3244;42.708;23.288;2023-05-10T07:25:44;11.63;;;5.28;;
6422;SDS011;3244;42.708;23.288;2023-05-10T07:28:13;7.20;;;6.60;;
6422;SDS011;3244;42.708;23.288;2023-05-10T07:30:39;5.00;;;4.60;;
6422;SDS011;3244;42.708;23.288;2023-05-10T07:33:06;6.43;;;5.35;;
6422;SDS011;3244;42.708;23.288;2023-05-10T07:35:34;7.35;;;6.65;;
6422;SDS011;3244;42.708;23.288;2023-05-10T07:38:01;6.72;;;6.25;;
6422;SDS011;3244;42.708;23.288;2023-05-10T07:40:28;8.07;;;6.53;;
6422;SDS011;3244;42.708;23.288;2023-05-10T07:42:55;6.97;;;6.43;;
6422;SDS011;3244;42.708;23.288;2023-05-10T07:45:23;6.38;;;5.78;;
6422;SDS011;3244;42.708;23.288;2023-05-10T07:47:50;10.73;;;6.80;;
6422;SDS011;3244;42.708;23.288;2023-05-10T07:50:17;6.70;;;6.20;;
6422;SDS011;3244;42.708;23.288;2023-05-10T07:52:43;10.38;;;6.03;;
6422;SDS011;3244;42.708;23.288;2023-05-10T07:55:10;12.98;;;6.88;;
6422;SDS011;3244;42.708;23.288;2023-05-10T07:57:37;12.52;;;7.15;;
6422;SDS011;3244;42.708;23.288;2023-05-10T08:00:04;11.45;;;8.13;;
6422;SDS011;3244;42.708;23.288;2023-05-10T08:02:34;8.13;;;7.43;;
6422;SDS011;3244;42.708;23.288;2023-05-10T08:05:01;7.15;;;6.65;;
6422;SDS011;3244;42.708;23.288;2023-05-10T08:07:28;10.63;;;7.15;;
6422;SDS011;3244;42.708;23.288;2023-05-10T08:09:55;7.88;;;6.93;;
6422;SDS011;3244;42.708;23.288;2023-05-10T08:12:21;8.07;;;7.13;;
6422;SDS011;3244;42.708;23.288;2023-05-10T08:14:48;8.05;;;7.22;;
6422;SDS011;3244;42.708;23.288;2023-05-10T08:17:15;6.25;;;5.75;;
6422;SDS011;3244;42.708;23.288;2023-05-10T08:19:43;8.18;;;7.47;;
6422;SDS011;3244;42.708;23.288;2023-05-10T08:22:09;9.00;;;7.20;;
6422;SDS011;3244;42.708;23.288;2023-05-10T08:24:36;7.47;;;6.40;;
6422;SDS011;3244;42.708;23.288;2023-05-10T08:27:04;8.85;;;7.35;;
6422;SDS011;3244;42.708;23.288;2023-05-10T08:29:31;19.30;;;6.82;;
6422;SDS011;3244;42.708;23.288;2023-05-10T08:31:57;8.82;;;5.85;;
6422;SDS011;3244;42.708;23.288;2023-05-10T08:34:25;7.13;;;6.47;;
6422;SDS011;3244;42.708;23.288;2023-05-10T08:36:54;5.53;;;4.68;;
6422;SDS011;3244;42.708;23.288;2023-05-10T08:39:20;8.60;;;7.80;;
6422;SDS011;3244;42.708;23.288;2023-05-10T08:41:48;7.22;;;6.72;;
6422;SDS011;3244;42.708;23.288;2023-05-10T08:44:19;7.88;;;5.88;;
6422;SDS011;3244;42.708;23.288;2023-05-10T08:46:46;9.23;;;7.72;;
6422;SDS011;3244;42.708;23.288;2023-05-10T08:49:17;8.80;;;7.93;;
6422;SDS011;3244;42.708;23.288;2023-05-10T08:51:47;7.43;;;6.82;;
6422;SDS011;3244;42.708;23.288;2023-05-10T08:54:19;7.03;;;5.95;;
6422;SDS011;3244;42.708;23.288;2023-05-10T08:56:45;6.57;;;5.72;;
6422;SDS011;3244;42.708;23.288;2023-05-10T08:59:13;12.00;;;7.22;;
6422;SDS011;3244;42.708;23.288;2023-05-10T09:01:40;8.63;;;6.50;;
6422;SDS011;3244;42.708;23.288;2023-05-10T09:04:09;8.32;;;7.53;;
6422;SDS011;3244;42.708;23.288;2023-05-10T09:06:37;4.95;;;4.63;;
6422;SDS011;3244;42.708;23.288;2023-05-10T09:09:03;7.05;;;6.55;;
6422;SDS011;3244;42.708;23.288;2023-05-10T09:11:32;6.32;;;5.88;;
6422;SDS011;3244;42.708;23.288;2023-05-10T09:13:59;7.40;;;6.80;;
6422;SDS011;3244;42.708;23.288;2023-05-10T09:16:26;7.25;;;6.63;;
6422;SDS011;3244;42.708;23.288;2023-05-10T09:18:53;7.60;;;6.82;;
6422;SDS011;3244;42.708;23.288;2023-05-10T09:21:19;7.45;;;6.40;;
6422;SDS011;3244;42.708;23.288;2023-05-10T09:23:46;8.40;;;7.13;;
6422;SDS011;3244;42.708;23.288;2023-05-10T09:26:15;9.48;;;6.55;;
6422;SDS011;3244;42.708;23.288;2023-05-10T09:28:53;7.30;;;6.68;;
6422;SDS011;3244;42.708;23.288;2023-05-10T09:31:21;11.95;;;7.47;;
6422;SDS011;3244;42.708;23.288;2023-05-10T09:33:49;9.35;;;8.50;;
6422;SDS011;3244;42.708;23.288;2023-05-10T09:36:16;6.95;;;6.45;;
6422;SDS011;3244;42.708;23.288;2023-05-10T09:38:46;7.72;;;7.05;;
6422;SDS011;3244;42.708;23.288;2023-05-10T09:41:17;8.57;;;8.00;;
6422;SDS011;3244;42.708;23.288;2023-05-10T09:43:45;7.53;;;6.82;;
6422;SDS011;3244;42.708;23.288;2023-05-10T09:46:13;5.22;;;4.82;;
6422;SDS011;3244;42.708;23.288;2023-05-10T09:48:41;6.25;;;5.75;;
6422;SDS011;3244;42.708;23.288;2023-05-10T09:51:09;6.80;;;6.28;;
6422;SDS011;3244;42.708;23.288;2023-05-10T09:53:35;8.40;;;7.05;;
6422;SDS011;3244;42.708;23.288;2023-05-10T09:56:02;8.52;;;7.20;;
6422;SDS011;3244;42.708;23.288;2023-05-10T09:58:29;8.65;;;8.00;;
6422;SDS011;3244;42.708;23.288;2023-05-10T10:00:56;7.85;;;7.35;;
6422;SDS011;3244;42.708;23.288;2023-05-10T10:03:24;10.25;;;8.00;;
6422;SDS011;3244;42.708;23.288;2023-05-10T10:05:50;7.53;;;6.82;;
6422;SDS011;3244;42.708;23.288;2023-05-10T10:08:18;6.85;;;6.30;;
6422;SDS011;3244;42.708;23.288;2023-05-10T10:10:45;7.88;;;7.15;;
6422;SDS011;3244;42.708;23.288;2023-05-10T10:13:13;6.82;;;6.25;;
6422;SDS011;3244;42.708;23.288;2023-05-10T10:15:40;16.23;;;7.22;;
6422;SDS011;3244;42.708;23.288;2023-05-10T10:18:08;8.65;;;6.90;;
6422;SDS011;3244;42.708;23.288;2023-05-10T10:20:41;9.63;;;7.40;;
6422;SDS011;3244;42.708;23.288;2023-05-10T10:23:08;8.75;;;7.35;;
6422;SDS011;3244;42.708;23.288;2023-05-10T10:25:35;8.98;;;8.07;;
6422;SDS011;3244;42.708;23.288;2023-05-10T10:28:08;8.90;;;8.05;;
6422;SDS011;3244;42.708;23.288;2023-05-10T10:30:44;8.32;;;7.60;;
6422;SDS011;3244;42.708;23.288;2023-05-10T10:33:31;7.43;;;6.85;;
6422;SDS011;3244;42.708;23.288;2023-05-10T10:36:06;4.07;;;3.88;;
6422;SDS011;3244;42.708;23.288;2023-05-10T10:38:37;6.65;;;6.13;;
6422;SDS011;3244;42.708;23.288;2023-05-10T10:41:27;6.72;;;6.13;;
6422;SDS011;3244;42.708;23.288;2023-05-10T10:47:01;8.85;;;6.32;;
6422;SDS011;3244;42.708;23.288;2023-05-10T10:49:31;12.55;;;5.90;;
6422;SDS011;3244;42.708;23.288;2023-05-10T10:52:15;6.78;;;5.75;;
6422;SDS011;3244;42.708;23.288;2023-05-10T10:54:49;6.10;;;5.75;;
6422;SDS011;3244;42.708;23.288;2023-05-10T10:57:18;5.53;;;5.03;;
6422;SDS011;3244;42.708;23.288;2023-05-10T10:59:46;4.68;;;4.32;;
6422;SDS011;3244;42.708;23.288;2023-05-10T11:04:59;5.85;;;5.40;;
6422;SDS011;3244;42.708;23.288;2023-05-10T11:07:27;8.07;;;5.25;;
6422;SDS011;3244;42.708;23.288;2023-05-10T11:09:54;5.80;;;5.47;;
6422;SDS011;3244;42.708;23.288;2023-05-10T11:12:21;8.27;;;5.63;;
6422;SDS011;3244;42.708;23.288;2023-05-10T11:14:49;7.80;;;6.45;;
6422;SDS011;3244;42.708;23.288;2023-05-10T11:17:22;7.68;;;5.30;;
6422;SDS011;3244;42.708;23.288;2023-05-10T11:20:06;5.00;;;4.60;;
6422;SDS011;3244;42.708;23.288;2023-05-10T11:25:32;5.57;;;5.22;;
6422;SDS011;3244;42.708;23.288;2023-05-10T11:27:59;4.78;;;4.47;;
6422;SDS011;3244;42.708;23.288;2023-05-10T11:30:30;5.93;;;5.45;;
6422;SDS011;3244;42.708;23.288;2023-05-10T11:32:57;5.70;;;5.40;;
6422;SDS011;3244;42.708;23.288;2023-05-10T11:35:24;10.05;;;5.18;;
6422;SDS011;3244;42.708;23.288;2023-05-10T11:37:54;7.70;;;5.53;;
6422;SDS011;3244;42.708;23.288;2023-05-10T11:40:21;5.90;;;4.95;;
6422;SDS011;3244;42.708;23.288;2023-05-10T11:42:50;5.40;;;4.97;;
6422;SDS011;3244;42.708;23.288;2023-05-10T11:45:20;5.97;;;5.38;;
6422;SDS011;3244;42.708;23.288;2023-05-10T11:47:50;5.90;;;5.50;;
6422;SDS011;3244;42.708;23.288;2023-05-10T11:50:16;12.07;;;6.95;;
6422;SDS011;3244;42.708;23.288;2023-05-10T11:52:44;6.28;;;5.78;;
6422;SDS011;3244;42.708;23.288;2023-05-10T11:55:10;5.88;;;4.03;;
6422;SDS011;3244;42.708;23.288;2023-05-10T11:57:38;5.28;;;4.90;;
6422;SDS011;3244;42.708;23.288;2023-05-10T12:00:08;6.13;;;5.63;;
6422;SDS011;3244;42.708;23.288;2023-05-10T12:02:36;5.55;;;4.85;;
6422;SDS011;3244;42.708;23.288;2023-05-10T12:05:03;6.22;;;5.32;;
6422;SDS011;3244;42.708;23.288;2023-05-10T12:07:31;5.30;;;5.00;;
6422;SDS011;3244;42.708;23.288;2023-05-10T12:10:07;4.75;;;4.40;;
6422;SDS011;3244;42.708;23.288;2023-05-10T12:12:38;5.97;;;5.57;;
6422;SDS011;3244;42.708;23.288;2023-05-10T12:15:11;6.20;;;5.70;;
6422;SDS011;3244;42.708;23.288;2023-05-10T12:17:38;7.40;;;6.65;;
6422;SDS011;3244;42.708;23.288;2023-05-10T12:20:16;6.50;;;5.15;;
6422;SDS011;3244;42.708;23.288;2023-05-10T12:22:45;8.57;;;6.15;;
6422;SDS011;3244;42.708;23.288;2023-05-10T12:25:13;10.38;;;4.93;;
6422;SDS011;3244;42.708;23.288;2023-05-10T12:27:40;6.22;;;5.72;;
6422;SDS011;3244;42.708;23.288;2023-05-10T12:30:17;5.93;;;5.43;;
6422;SDS011;3244;42.708;23.288;2023-05-10T12:32:45;7.97;;;6.80;;
6422;SDS011;3244;42.708;23.288;2023-05-10T12:35:12;5.57;;;4.70;;
6422;SDS011;3244;42.708;23.288;2023-05-10T12:37:38;14.68;;;6.03;;
6422;SDS011;3244;42.708;23.288;2023-05-10T12:40:05;6.22;;;5.60;;
6422;SDS011;3244;42.708;23.288;2023-05-10T12:42:34;7.50;;;5.97;;
6422;SDS011;3244;42.708;23.288;2023-05-10T12:45:01;8.43;;;6.45;;
6422;SDS011;3244;42.708;23.288;2023-05-10T12:47:29;7.80;;;5.15;;
6422;SDS011;3244;42.708;23.288;2023-05-10T12:49:56;6.32;;;5.72;;
6422;SDS011;3244;42.708;23.288;2023-05-10T12:52:23;6.18;;;5.78;;
6422;SDS011;3244;42.708;23.288;2023-05-10T12:54:51;5.55;;;5.13;;
6422;SDS011;3244;42.708;23.288;2023-05-10T12:57:17;9.77;;;6.03;;
6422;SDS011;3244;42.708;23.288;2023-05-10T12:59:44;6.20;;;5.63;;
6422;SDS011;3244;42.708;23.288;2023-05-10T13:02:11;6.50;;;5.90;;
6422;SDS011;3244;42.708;23.288;2023-05-10T13:04:39;7.78;;;6.15;;
6422;SDS011;3244;42.708;23.288;2023-05-10T13:07:06;9.75;;;6.35;;
6422;SDS011;3244;42.708;23.288;2023-05-10T13:09:33;6.10;;;5.57;;
6422;SDS011;3244;42.708;23.288;2023-05-10T13:12:00;7.22;;;5.95;;
6422;SDS011;3244;42.708;23.288;2023-05-10T13:14:27;6.05;;;5.55;;
6422;SDS011;3244;42.708;23.288;2023-05-10T13:16:54;6.95;;;6.35;;
6422;SDS011;3244;42.708;23.288;2023-05-10T13:19:20;6.85;;;6.20;;
6422;SDS011;3244;42.708;23.288;2023-05-10T13:21:48;6.95;;;6.07;;
6422;SDS011;3244;42.708;23.288;2023-05-10T13:24:15;6.63;;;6.05;;
6422;SDS011;3244;42.708;23.288;2023-05-10T13:26:42;7.72;;;7.05;;
6422;SDS011;3244;42.708;23.288;2023-05-10T13:29:09;6.50;;;5.72;;
6422;SDS011;3244;42.708;23.288;2023-05-10T13:31:36;6.70;;;6.10;;
6422;SDS011;3244;42.708;23.288;2023-05-10T13:34:03;6.72;;;6.07;;
6422;SDS011;3244;42.708;23.288;2023-05-10T13:36:30;8.73;;;6.50;;
6422;SDS011;3244;42.708;23.288;2023-05-10T13:38:58;6.78;;;6.18;;
6422;SDS011;3244;42.708;23.288;2023-05-10T13:41:26;6.47;;;5.95;;
6422;SDS011;3244;42.708;23.288;2023-05-10T13:43:53;6.18;;;5.65;;
6422;SDS011;3244;42.708;23.288;2023-05-10T13:46:19;6.28;;;5.68;;
6422;SDS011;3244;42.708;23.288;2023-05-10T13:48:46;12.25;;;5.57;;
6422;SDS011;3244;42.708;23.288;2023-05-10T13:51:13;9.88;;;5.45;;
6422;SDS011;3244;42.708;23.288;2023-05-10T13:53:39;5.28;;;4.90;;
6422;SDS011;3244;42.708;23.288;2023-05-10T13:59:05;8.00;;;6.20;;
6422;SDS011;3244;42.708;23.288;2023-05-10T14:01:33;9.52;;;5.35;;
6422;SDS011;3244;42.708;23.288;2023-05-10T14:04:00;10.50;;;6.60;;
6422;SDS011;3244;42.708;23.288;2023-05-10T14:06:26;7.18;;;6.20;;
6422;SDS011;3244;42.708;23.288;2023-05-10T14:08:53;5.63;;;5.22;;
6422;SDS011;3244;42.708;23.288;2023-05-10T14:11:20;6.03;;;5.63;;
6422;SDS011;3244;42.708;23.288;2023-05-10T14:13:48;7.57;;;5.35;;
6422;SDS011;3244;42.708;23.288;2023-05-10T14:16:14;7.25;;;6.63;;
6422;SDS011;3244;42.708;23.288;2023-05-10T14:18:41;6.72;;;6.32;;
6422;SDS011;3244;42.708;23.288;2023-05-10T14:21:08;6.30;;;5.70;;
6422;SDS011;3244;42.708;23.288;2023-05-10T14:23:34;6.80;;;6.15;;
6422;SDS011;3244;42.708;23.288;2023-05-10T14:26:01;10.35;;;5.80;;
6422;SDS011;3244;42.708;23.288;2023-05-10T14:28:28;7.68;;;5.50;;
6422;SDS011;3244;42.708;23.288;2023-05-10T14:30:56;6.93;;;5.28;;
6422;SDS011;3244;42.708;23.288;2023-05-10T14:33:22;12.40;;;5.13;;
6422;SDS011;3244;42.708;23.288;2023-05-10T14:35:49;10.07;;;5.60;;
6422;SDS011;3244;42.708;23.288;2023-05-10T14:38:16;6.30;;;5.80;;
6422;SDS011;3244;42.708;23.288;2023-05-10T14:40:42;5.97;;;5.47;;
6422;SDS011;3244;42.708;23.288;2023-05-10T14:43:09;5.75;;;5.25;;
6422;SDS011;3244;42.708;23.288;2023-05-10T14:45:36;6.05;;;5.65;;
6422;SDS011;3244;42.708;23.288;2023-05-10T14:48:04;7.75;;;6.55;;
6422;SDS011;3244;42.708;23.288;2023-05-10T14:50:31;7.22;;;6.72;;
6422;SDS011;3244;42.708;23.288;2023-05-10T14:56:01;6.70;;;6.03;;
6422;SDS011;3244;42.708;23.288;2023-05-10T14:58:28;5.50;;;5.10;;
6422;SDS011;3244;42.708;23.288;2023-05-10T15:00:55;7.28;;;6.57;;
6422;SDS011;3244;42.708;23.288;2023-05-10T15:03:24;18.10;;;6.45;;
6422;SDS011;3244;42.708;23.288;2023-05-10T15:05:51;6.72;;;6.15;;
6422;SDS011;3244;42.708;23.288;2023-05-10T15:08:18;6.28;;;5.72;;
6422;SDS011;3244;42.708;23.288;2023-05-10T15:10:44;8.98;;;5.95;;
6422;SDS011;3244;42.708;23.288;2023-05-10T15:13:11;7.18;;;6.35;;
6422;SDS011;3244;42.708;23.288;2023-05-10T15:15:38;8.50;;;6.50;;
6422;SDS011;3244;42.708;23.288;2023-05-10T15:18:04;7.00;;;6.50;;
6422;SDS011;3244;42.708;23.288;2023-05-10T15:23:00;9.88;;;6.53;;
6422;SDS011;3244;42.708;23.288;2023-05-10T15:25:27;19.23;;;6.57;;